sensor_id;sensor_type;location;lat;lon;timestamp;P1;durP1;ratioP1;P2;durP2;ratioP2
34453;SDS011;60061;52.080;5.312;2022-12-29T00:01:35;3.2;;;2.7;;
34453;SDS011;60061;52.080;5.312;2022-12-29T00:03:12;4.2;;;2.7;;
34453;SDS011;60061;52.080;5.312;2022-12-29T00:06:26;3.1;;;2.5;;
34453;SDS011;60061;52.080;5.312;2022-12-29T00:08:03;4.0;;;2.6;;
34453;SDS011;60061;52.080;5.312;2022-12-29T00:09:39;4.0;;;2.6;;
34453;SDS011;60061;52.080;5.312;2022-12-29T00:12:55;3.6;;;2.5;;
34453;SDS011;60061;52.080;5.312;2022-12-29T00:14:32;2.6;;;2.21;;
34453;SDS011;60061;52.080;5.312;2022-12-29T00:16:08;2.6;;;2.21;;
34453;SDS011;60061;52.080;5.312;2022-12-29T00:17:44;2.6;;;2.21;;
34453;SDS011;60061;52.080;5.312;2022-12-29T00:20:56;3.5;;;2.31;;
34453;SDS011;60061;52.080;5.312;2022-12-29T00:22:33;3.3;;;2.5;;
34453;SDS011;60061;52.080;5.312;2022-12-29T00:24:12;5.0;;;2.31;;
34453;SDS011;60061;52.080;5.312;2022-12-29T00:27:26;3.4;;;2.21;;
34453;SDS011;60061;52.080;5.312;2022-12-29T00:29:03;4.3;;;2.4;;
34453;SDS011;60061;52.080;5.312;2022-12-29T00:30:40;3.4;;;2.31;;
34453;SDS011;60061;52.080;5.312;2022-12-29T00:32:17;2.6;;;2.21;;
34453;SDS011;60061;52.080;5.312;2022-12-29T00:35:30;3.4;;;2.31;;
34453;SDS011;60061;52.080;5.312;2022-12-29T00:37:12;3.1;;;2.4;;
34453;SDS011;60061;52.080;5.312;2022-12-29T00:38:50;3.3;;;2.1;;
34453;SDS011;60061;52.080;5.312;2022-12-29T00:42:07;2.8;;;2.31;;
34453;SDS011;60061;52.080;5.312;2022-12-29T00:45:21;3.2;;;2.31;;
34453;SDS011;60061;52.080;5.312;2022-12-29T00:46:57;2.5;;;2.1;;
34453;SDS011;60061;52.080;5.312;2022-12-29T00:50:10;3.5;;;2.31;;
34453;SDS011;60061;52.080;5.312;2022-12-29T00:51:46;3.2;;;2.21;;
34453;SDS011;60061;52.080;5.312;2022-12-29T00:53:23;2.6;;;2.31;;
34453;SDS011;60061;52.080;5.312;2022-12-29T00:56:35;2.6;;;2.1;;
34453;SDS011;60061;52.080;5.312;2022-12-29T00:58:13;2.1;;;1.9;;
34453;SDS011;60061;52.080;5.312;2022-12-29T00:59:49;4.3;;;2.21;;
34453;SDS011;60061;52.080;5.312;2022-12-29T01:03:02;3.2;;;1.9;;
34453;SDS011;60061;52.080;5.312;2022-12-29T01:04:38;3.8;;;2.31;;
34453;SDS011;60061;52.080;5.312;2022-12-29T01:06:14;3.4;;;1.8;;
34453;SDS011;60061;52.080;5.312;2022-12-29T01:07:51;2.0;;;1.8;;
34453;SDS011;60061;52.080;5.312;2022-12-29T01:11:04;2.7;;;1.8;;
34453;SDS011;60061;52.080;5.312;2022-12-29T01:12:42;3.5;;;1.8;;
34453;SDS011;60061;52.080;5.312;2022-12-29T01:14:19;2.6;;;1.8;;
34453;SDS011;60061;52.080;5.312;2022-12-29T01:17:33;2.4;;;1.9;;
34453;SDS011;60061;52.080;5.312;2022-12-29T01:19:10;4.61;;;1.9;;
34453;SDS011;60061;52.080;5.312;2022-12-29T01:20:47;2.4;;;1.7;;
34453;SDS011;60061;52.080;5.312;2022-12-29T01:24:00;4.0;;;2.0;;
34453;SDS011;60061;52.080;5.312;2022-12-29T01:25:37;3.3;;;1.8;;
34453;SDS011;60061;52.080;5.312;2022-12-29T01:27:14;3.5;;;1.8;;
34453;SDS011;60061;52.080;5.312;2022-12-29T01:28:50;2.8;;;1.6;;
34453;SDS011;60061;52.080;5.312;2022-12-29T01:32:03;3.0;;;1.8;;
34453;SDS011;60061;52.080;5.312;2022-12-29T01:33:40;2.0;;;1.4;;
34453;SDS011;60061;52.080;5.312;2022-12-29T01:35:18;2.5;;;1.7;;
34453;SDS011;60061;52.080;5.312;2022-12-29T01:38:31;2.31;;;1.8;;
34453;SDS011;60061;52.080;5.312;2022-12-29T01:40:09;2.7;;;1.9;;
34453;SDS011;60061;52.080;5.312;2022-12-29T01:41:46;2.21;;;1.9;;
34453;SDS011;60061;52.080;5.312;2022-12-29T01:43:37;3.5;;;1.9;;
34453;SDS011;60061;52.080;5.312;2022-12-29T01:46:53;2.8;;;1.9;;
34453;SDS011;60061;52.080;5.312;2022-12-29T01:48:31;2.1;;;1.9;;
34453;SDS011;60061;52.080;5.312;2022-12-29T01:50:09;3.7;;;2.21;;
34453;SDS011;60061;52.080;5.312;2022-12-29T01:51:51;2.1;;;1.8;;
34453;SDS011;60061;52.080;5.312;2022-12-29T01:55:12;2.1;;;1.9;;
34453;SDS011;60061;52.080;5.312;2022-12-29T01:56:49;3.4;;;2.1;;
34453;SDS011;60061;52.080;5.312;2022-12-29T01:58:28;2.5;;;2.0;;
34453;SDS011;60061;52.080;5.312;2022-12-29T02:00:10;3.9;;;2.31;;
34453;SDS011;60061;52.080;5.312;2022-12-29T02:03:26;3.0;;;2.1;;
34453;SDS011;60061;52.080;5.312;2022-12-29T02:05:07;3.6;;;2.0;;
34453;SDS011;60061;52.080;5.312;2022-12-29T02:06:51;1.9;;;1.7;;
34453;SDS011;60061;52.080;5.312;2022-12-29T02:08:32;2.7;;;2.1;;
34453;SDS011;60061;52.080;5.312;2022-12-29T02:11:44;3.2;;;1.9;;
34453;SDS011;60061;52.080;5.312;2022-12-29T02:13:23;2.7;;;1.9;;
34453;SDS011;60061;52.080;5.312;2022-12-29T02:15:00;2.5;;;2.0;;
34453;SDS011;60061;52.080;5.312;2022-12-29T02:18:37;2.6;;;2.0;;
34453;SDS011;60061;52.080;5.312;2022-12-29T02:24:11;2.5;;;2.21;;
34453;SDS011;60061;52.080;5.312;2022-12-29T02:27:40;3.0;;;1.8;;
34453;SDS011;60061;52.080;5.312;2022-12-29T02:30:51;3.3;;;1.6;;
34453;SDS011;60061;52.080;5.312;2022-12-29T02:32:42;2.4;;;1.6;;
34453;SDS011;60061;52.080;5.312;2022-12-29T02:34:29;2.8;;;1.8;;
34453;SDS011;60061;52.080;5.312;2022-12-29T02:36:21;2.5;;;1.7;;
34453;SDS011;60061;52.080;5.312;2022-12-29T02:38:09;2.8;;;1.6;;
34453;SDS011;60061;52.080;5.312;2022-12-29T02:39:56;5.11;;;1.6;;
34453;SDS011;60061;52.080;5.312;2022-12-29T02:43:41;3.0;;;1.5;;
34453;SDS011;60061;52.080;5.312;2022-12-29T02:45:31;3.3;;;1.4;;
34453;SDS011;60061;52.080;5.312;2022-12-29T02:47:15;1.7;;;1.2;;
34453;SDS011;60061;52.080;5.312;2022-12-29T02:49:01;2.9;;;1.2;;
34453;SDS011;60061;52.080;5.312;2022-12-29T02:50:48;4.3;;;1.3;;
34453;SDS011;60061;52.080;5.312;2022-12-29T02:52:34;1.6;;;1.11;;
34453;SDS011;60061;52.080;5.312;2022-12-29T02:55:53;2.1;;;1.11;;
34453;SDS011;60061;52.080;5.312;2022-12-29T02:57:31;4.3;;;1.11;;
34453;SDS011;60061;52.080;5.312;2022-12-29T02:59:09;2.8;;;1.3;;
34453;SDS011;60061;52.080;5.312;2022-12-29T03:00:51;2.8;;;1.0;;
34453;SDS011;60061;52.080;5.312;2022-12-29T03:04:53;1.6;;;1.11;;
34453;SDS011;60061;52.080;5.312;2022-12-29T03:06:55;3.5;;;1.11;;
34453;SDS011;60061;52.080;5.312;2022-12-29T03:08:41;2.1;;;1.0;;
34453;SDS011;60061;52.080;5.312;2022-12-29T03:10:29;3.4;;;1.2;;
34453;SDS011;60061;52.080;5.312;2022-12-29T03:12:18;2.8;;;1.2;;
34453;SDS011;60061;52.080;5.312;2022-12-29T03:14:08;2.21;;;1.11;;
34453;SDS011;60061;52.080;5.312;2022-12-29T03:15:54;3.2;;;1.2;;
34453;SDS011;60061;52.080;5.312;2022-12-29T03:17:39;2.8;;;1.2;;
34453;SDS011;60061;52.080;5.312;2022-12-29T03:21:08;2.8;;;1.2;;
34453;SDS011;60061;52.080;5.312;2022-12-29T03:22:50;2.0;;;1.0;;
34453;SDS011;60061;52.080;5.312;2022-12-29T03:24:34;2.8;;;1.0;;
34453;SDS011;60061;52.080;5.312;2022-12-29T03:26:26;2.1;;;1.2;;
34453;SDS011;60061;52.080;5.312;2022-12-29T03:28:06;3.3;;;1.2;;
34453;SDS011;60061;52.080;5.312;2022-12-29T03:31:26;1.8;;;1.11;;
34453;SDS011;60061;52.080;5.312;2022-12-29T03:33:04;1.9;;;1.11;;
34453;SDS011;60061;52.080;5.312;2022-12-29T03:34:45;4.3;;;1.4;;
34453;SDS011;60061;52.080;5.312;2022-12-29T03:36:26;2.6;;;1.4;;
34453;SDS011;60061;52.080;5.312;2022-12-29T03:39:55;2.6;;;1.4;;
34453;SDS011;60061;52.080;5.312;2022-12-29T03:41:32;3.7;;;1.4;;
34453;SDS011;60061;52.080;5.312;2022-12-29T03:43:10;3.0;;;1.4;;
34453;SDS011;60061;52.080;5.312;2022-12-29T03:44:48;3.2;;;1.4;;
34453;SDS011;60061;52.080;5.312;2022-12-29T03:48:06;2.8;;;1.3;;
34453;SDS011;60061;52.080;5.312;2022-12-29T03:49:43;3.9;;;1.4;;
34453;SDS011;60061;52.080;5.312;2022-12-29T03:51:20;3.9;;;1.6;;
34453;SDS011;60061;52.080;5.312;2022-12-29T03:54:35;3.2;;;1.6;;
34453;SDS011;60061;52.080;5.312;2022-12-29T03:56:11;4.1;;;1.5;;
34453;SDS011;60061;52.080;5.312;2022-12-29T03:59:24;3.4;;;1.5;;
34453;SDS011;60061;52.080;5.312;2022-12-29T04:02:36;4.61;;;1.4;;
34453;SDS011;60061;52.080;5.312;2022-12-29T04:04:13;3.9;;;1.6;;
34453;SDS011;60061;52.080;5.312;2022-12-29T04:05:49;4.0;;;1.8;;
34453;SDS011;60061;52.080;5.312;2022-12-29T04:09:02;4.5;;;1.5;;
34453;SDS011;60061;52.080;5.312;2022-12-29T04:10:39;4.91;;;1.6;;
34453;SDS011;60061;52.080;5.312;2022-12-29T04:12:16;4.7;;;1.7;;
34453;SDS011;60061;52.080;5.312;2022-12-29T04:15:29;4.7;;;1.3;;
34453;SDS011;60061;52.080;5.312;2022-12-29T04:17:05;3.2;;;1.4;;
34453;SDS011;60061;52.080;5.312;2022-12-29T04:18:42;5.11;;;1.8;;
34453;SDS011;60061;52.080;5.312;2022-12-29T04:20:19;5.9;;;1.7;;
34453;SDS011;60061;52.080;5.312;2022-12-29T04:23:32;3.7;;;1.5;;
34453;SDS011;60061;52.080;5.312;2022-12-29T04:25:11;4.7;;;1.6;;
34453;SDS011;60061;52.080;5.312;2022-12-29T04:26:47;4.8;;;1.6;;
34453;SDS011;60061;52.080;5.312;2022-12-29T04:30:00;3.0;;;1.4;;
34453;SDS011;60061;52.080;5.312;2022-12-29T04:31:37;4.1;;;1.5;;
34453;SDS011;60061;52.080;5.312;2022-12-29T04:33:13;5.7;;;1.4;;
34453;SDS011;60061;52.080;5.312;2022-12-29T04:36:26;8.0;;;1.5;;
34453;SDS011;60061;52.080;5.312;2022-12-29T04:38:02;5.4;;;1.4;;
34453;SDS011;60061;52.080;5.312;2022-12-29T04:39:39;8.81;;;1.4;;
34453;SDS011;60061;52.080;5.312;2022-12-29T04:41:15;4.91;;;1.3;;
34453;SDS011;60061;52.080;5.312;2022-12-29T04:44:28;5.4;;;1.6;;
34453;SDS011;60061;52.080;5.312;2022-12-29T04:46:04;5.0;;;1.2;;
34453;SDS011;60061;52.080;5.312;2022-12-29T04:47:41;7.5;;;1.3;;
34453;SDS011;60061;52.080;5.312;2022-12-29T04:50:54;7.8;;;1.7;;
34453;SDS011;60061;52.080;5.312;2022-12-29T04:52:30;5.8;;;1.7;;
34453;SDS011;60061;52.080;5.312;2022-12-29T04:54:07;5.9;;;1.4;;
34453;SDS011;60061;52.080;5.312;2022-12-29T04:57:24;8.0;;;1.8;;
34453;SDS011;60061;52.080;5.312;2022-12-29T04:59:02;8.9;;;1.7;;
34453;SDS011;60061;52.080;5.312;2022-12-29T05:00:38;8.31;;;1.8;;
34453;SDS011;60061;52.080;5.312;2022-12-29T05:02:14;9.81;;;1.7;;
34453;SDS011;60061;52.080;5.312;2022-12-29T05:05:27;7.2;;;1.7;;
34453;SDS011;60061;52.080;5.312;2022-12-29T05:07:05;9.1;;;1.6;;
34453;SDS011;60061;52.080;5.312;2022-12-29T05:08:42;9.4;;;1.6;;
34453;SDS011;60061;52.080;5.312;2022-12-29T05:11:54;8.5;;;2.0;;
34453;SDS011;60061;52.080;5.312;2022-12-29T05:13:30;8.81;;;1.6;;
34453;SDS011;60061;52.080;5.312;2022-12-29T05:15:07;6.3;;;1.8;;
34453;SDS011;60061;52.080;5.312;2022-12-29T05:16:45;5.4;;;1.4;;
34453;SDS011;60061;52.080;5.312;2022-12-29T05:19:58;6.2;;;1.5;;
34453;SDS011;60061;52.080;5.312;2022-12-29T05:21:35;7.0;;;1.7;;
34453;SDS011;60061;52.080;5.312;2022-12-29T05:23:12;9.21;;;2.0;;
34453;SDS011;60061;52.080;5.312;2022-12-29T05:26:25;13.4;;;1.8;;
34453;SDS011;60061;52.080;5.312;2022-12-29T05:28:02;8.6;;;1.4;;
34453;SDS011;60061;52.080;5.312;2022-12-29T05:29:39;8.31;;;1.4;;
34453;SDS011;60061;52.080;5.312;2022-12-29T05:32:51;9.81;;;1.8;;
34453;SDS011;60061;52.080;5.312;2022-12-29T05:34:28;10.3;;;1.8;;
34453;SDS011;60061;52.080;5.312;2022-12-29T05:36:06;11.2;;;1.7;;
34453;SDS011;60061;52.080;5.312;2022-12-29T05:37:44;10.1;;;1.5;;
34453;SDS011;60061;52.080;5.312;2022-12-29T05:40:57;7.9;;;1.7;;
34453;SDS011;60061;52.080;5.312;2022-12-29T05:42:33;10.21;;;1.9;;
34453;SDS011;60061;52.080;5.312;2022-12-29T05:44:09;9.31;;;1.7;;
34453;SDS011;60061;52.080;5.312;2022-12-29T05:47:25;9.81;;;1.9;;
34453;SDS011;60061;52.080;5.312;2022-12-29T05:49:01;8.9;;;1.6;;
34453;SDS011;60061;52.080;5.312;2022-12-29T05:50:37;12.3;;;1.8;;
34453;SDS011;60061;52.080;5.312;2022-12-29T05:53:50;12.4;;;2.0;;
34453;SDS011;60061;52.080;5.312;2022-12-29T05:55:27;9.71;;;2.31;;
34453;SDS011;60061;52.080;5.312;2022-12-29T05:57:03;6.9;;;1.8;;
34453;SDS011;60061;52.080;5.312;2022-12-29T06:00:16;8.31;;;2.0;;
34453;SDS011;60061;52.080;5.312;2022-12-29T06:01:52;10.9;;;2.21;;
34453;SDS011;60061;52.080;5.312;2022-12-29T06:03:28;12.0;;;1.8;;
34453;SDS011;60061;52.080;5.312;2022-12-29T06:05:05;6.5;;;2.31;;
34453;SDS011;60061;52.080;5.312;2022-12-29T06:08:19;13.6;;;4.1;;
34453;SDS011;60061;52.080;5.312;2022-12-29T06:09:55;10.5;;;3.0;;
34453;SDS011;60061;52.080;5.312;2022-12-29T06:11:32;12.0;;;2.5;;
34453;SDS011;60061;52.080;5.312;2022-12-29T06:14:45;7.5;;;2.5;;
34453;SDS011;60061;52.080;5.312;2022-12-29T06:16:22;15.7;;;4.41;;
34453;SDS011;60061;52.080;5.312;2022-12-29T06:17:59;10.6;;;2.1;;
34453;SDS011;60061;52.080;5.312;2022-12-29T06:19:36;10.6;;;2.1;;
34453;SDS011;60061;52.080;5.312;2022-12-29T06:22:48;10.5;;;2.0;;
34453;SDS011;60061;52.080;5.312;2022-12-29T06:24:26;10.0;;;2.21;;
34453;SDS011;60061;52.080;5.312;2022-12-29T06:26:03;46.2;;;22.9;;
34453;SDS011;60061;52.080;5.312;2022-12-29T06:29:17;13.1;;;2.7;;
34453;SDS011;60061;52.080;5.312;2022-12-29T06:30:53;15.0;;;3.8;;
34453;SDS011;60061;52.080;5.312;2022-12-29T06:32:30;12.9;;;2.7;;
34453;SDS011;60061;52.080;5.312;2022-12-29T06:35:43;11.7;;;2.31;;
34453;SDS011;60061;52.080;5.312;2022-12-29T06:37:20;20.6;;;7.8;;
34453;SDS011;60061;52.080;5.312;2022-12-29T06:38:57;23.9;;;9.5;;
34453;SDS011;60061;52.080;5.312;2022-12-29T06:40:33;14.7;;;3.1;;
34453;SDS011;60061;52.080;5.312;2022-12-29T06:43:46;30.1;;;13.0;;
34453;SDS011;60061;52.080;5.312;2022-12-29T06:45:24;15.0;;;4.1;;
34453;SDS011;60061;52.080;5.312;2022-12-29T06:47:01;14.8;;;7.4;;
34453;SDS011;60061;52.080;5.312;2022-12-29T06:50:13;11.6;;;2.8;;
34453;SDS011;60061;52.080;5.312;2022-12-29T06:51:50;15.0;;;5.11;;
34453;SDS011;60061;52.080;5.312;2022-12-29T06:53:28;9.71;;;2.7;;
34453;SDS011;60061;52.080;5.312;2022-12-29T06:55:05;10.6;;;3.5;;
34453;SDS011;60061;52.080;5.312;2022-12-29T06:58:20;10.5;;;2.7;;
34453;SDS011;60061;52.080;5.312;2022-12-29T06:59:56;8.6;;;2.0;;
34453;SDS011;60061;52.080;5.312;2022-12-29T07:01:33;11.2;;;2.0;;
34453;SDS011;60061;52.080;5.312;2022-12-29T07:04:46;20.5;;;7.9;;
34453;SDS011;60061;52.080;5.312;2022-12-29T07:06:22;32.4;;;11.5;;
34453;SDS011;60061;52.080;5.312;2022-12-29T07:07:59;10.8;;;2.5;;
34453;SDS011;60061;52.080;5.312;2022-12-29T07:11:12;12.7;;;3.5;;
34453;SDS011;60061;52.080;5.312;2022-12-29T07:12:49;9.1;;;2.21;;
34453;SDS011;60061;52.080;5.312;2022-12-29T07:14:26;10.4;;;1.8;;
34453;SDS011;60061;52.080;5.312;2022-12-29T07:16:04;9.4;;;1.7;;
34453;SDS011;60061;52.080;5.312;2022-12-29T07:19:18;13.8;;;3.7;;
34453;SDS011;60061;52.080;5.312;2022-12-29T07:20:55;8.81;;;2.4;;
34453;SDS011;60061;52.080;5.312;2022-12-29T07:22:32;12.4;;;2.4;;
34453;SDS011;60061;52.080;5.312;2022-12-29T07:25:45;11.1;;;3.6;;
34453;SDS011;60061;52.080;5.312;2022-12-29T07:27:22;12.0;;;2.5;;
34453;SDS011;60061;52.080;5.312;2022-12-29T07:29:00;16.7;;;7.0;;
34453;SDS011;60061;52.080;5.312;2022-12-29T07:32:14;53.9;;;24.8;;
34453;SDS011;60061;52.080;5.312;2022-12-29T07:33:51;15.0;;;6.3;;
34453;SDS011;60061;52.080;5.312;2022-12-29T07:35:28;13.5;;;6.4;;
34453;SDS011;60061;52.080;5.312;2022-12-29T07:37:04;9.6;;;3.3;;
34453;SDS011;60061;52.080;5.312;2022-12-29T07:40:19;5.6;;;2.31;;
34453;SDS011;60061;52.080;5.312;2022-12-29T07:41:56;8.9;;;2.31;;
34453;SDS011;60061;52.080;5.312;2022-12-29T07:43:33;10.5;;;2.9;;
34453;SDS011;60061;52.080;5.312;2022-12-29T07:46:47;8.31;;;2.1;;
34453;SDS011;60061;52.080;5.312;2022-12-29T07:48:23;9.31;;;2.4;;
34453;SDS011;60061;52.080;5.312;2022-12-29T07:49:59;9.1;;;2.4;;
34453;SDS011;60061;52.080;5.312;2022-12-29T07:51:36;10.21;;;2.8;;
34453;SDS011;60061;52.080;5.312;2022-12-29T07:54:51;8.9;;;2.21;;
34453;SDS011;60061;52.080;5.312;2022-12-29T07:56:27;8.9;;;3.4;;
34453;SDS011;60061;52.080;5.312;2022-12-29T07:58:04;10.3;;;2.8;;
34453;SDS011;60061;52.080;5.312;2022-12-29T08:01:16;12.9;;;3.1;;
34453;SDS011;60061;52.080;5.312;2022-12-29T08:04:29;9.9;;;2.9;;
34453;SDS011;60061;52.080;5.312;2022-12-29T08:07:44;11.5;;;3.2;;
34453;SDS011;60061;52.080;5.312;2022-12-29T08:09:22;10.9;;;3.6;;
34453;SDS011;60061;52.080;5.312;2022-12-29T08:10:58;12.5;;;3.5;;
34453;SDS011;60061;52.080;5.312;2022-12-29T08:12:34;16.4;;;6.5;;
34453;SDS011;60061;52.080;5.312;2022-12-29T08:15:47;11.4;;;2.7;;
34453;SDS011;60061;52.080;5.312;2022-12-29T08:17:23;11.4;;;2.5;;
34453;SDS011;60061;52.080;5.312;2022-12-29T08:18:59;12.1;;;2.4;;
34453;SDS011;60061;52.080;5.312;2022-12-29T08:22:12;14.6;;;6.7;;
34453;SDS011;60061;52.080;5.312;2022-12-29T08:23:49;11.2;;;2.6;;
34453;SDS011;60061;52.080;5.312;2022-12-29T08:25:25;11.2;;;2.5;;
34453;SDS011;60061;52.080;5.312;2022-12-29T08:28:38;9.1;;;3.6;;
34453;SDS011;60061;52.080;5.312;2022-12-29T08:30:14;16.11;;;7.5;;
34453;SDS011;60061;52.080;5.312;2022-12-29T08:31:51;16.8;;;6.0;;
34453;SDS011;60061;52.080;5.312;2022-12-29T08:33:27;11.9;;;3.1;;
34453;SDS011;60061;52.080;5.312;2022-12-29T08:36:42;16.5;;;4.3;;
34453;SDS011;60061;52.080;5.312;2022-12-29T08:38:18;14.5;;;2.8;;
34453;SDS011;60061;52.080;5.312;2022-12-29T08:39:55;16.0;;;3.4;;
34453;SDS011;60061;52.080;5.312;2022-12-29T08:43:08;11.7;;;2.5;;
34453;SDS011;60061;52.080;5.312;2022-12-29T08:44:44;10.5;;;3.1;;
34453;SDS011;60061;52.080;5.312;2022-12-29T08:46:20;13.9;;;4.0;;
34453;SDS011;60061;52.080;5.312;2022-12-29T08:49:33;10.5;;;2.5;;
34453;SDS011;60061;52.080;5.312;2022-12-29T08:51:10;11.6;;;2.6;;
34453;SDS011;60061;52.080;5.312;2022-12-29T08:52:46;12.7;;;2.31;;
34453;SDS011;60061;52.080;5.312;2022-12-29T08:54:22;11.7;;;2.31;;
34453;SDS011;60061;52.080;5.312;2022-12-29T08:57:36;9.1;;;2.4;;
34453;SDS011;60061;52.080;5.312;2022-12-29T08:59:12;15.4;;;3.7;;
34453;SDS011;60061;52.080;5.312;2022-12-29T09:00:51;11.7;;;3.8;;
34453;SDS011;60061;52.080;5.312;2022-12-29T09:04:04;11.7;;;3.8;;
34453;SDS011;60061;52.080;5.312;2022-12-29T09:05:40;14.6;;;4.41;;
34453;SDS011;60061;52.080;5.312;2022-12-29T09:07:16;15.0;;;4.3;;
34453;SDS011;60061;52.080;5.312;2022-12-29T09:10:30;14.8;;;3.4;;
34453;SDS011;60061;52.080;5.312;2022-12-29T09:12:07;10.5;;;2.8;;
34453;SDS011;60061;52.080;5.312;2022-12-29T09:13:43;10.7;;;2.4;;
34453;SDS011;60061;52.080;5.312;2022-12-29T09:15:20;9.9;;;2.4;;
34453;SDS011;60061;52.080;5.312;2022-12-29T09:18:33;11.5;;;2.6;;
34453;SDS011;60061;52.080;5.312;2022-12-29T09:20:10;9.4;;;2.0;;
34453;SDS011;60061;52.080;5.312;2022-12-29T09:21:47;9.71;;;2.21;;
34453;SDS011;60061;52.080;5.312;2022-12-29T09:25:00;10.6;;;3.0;;
34453;SDS011;60061;52.080;5.312;2022-12-29T09:26:36;13.4;;;2.21;;
34453;SDS011;60061;52.080;5.312;2022-12-29T09:28:13;12.0;;;2.8;;
34453;SDS011;60061;52.080;5.312;2022-12-29T09:31:25;10.5;;;2.31;;
34453;SDS011;60061;52.080;5.312;2022-12-29T09:33:02;10.7;;;3.0;;
34453;SDS011;60061;52.080;5.312;2022-12-29T09:34:39;8.5;;;1.9;;
34453;SDS011;60061;52.080;5.312;2022-12-29T09:36:16;17.5;;;3.3;;
34453;SDS011;60061;52.080;5.312;2022-12-29T09:39:29;8.2;;;2.21;;
34453;SDS011;60061;52.080;5.312;2022-12-29T09:41:06;12.5;;;3.1;;
34453;SDS011;60061;52.080;5.312;2022-12-29T09:42:55;12.1;;;2.9;;
34453;SDS011;60061;52.080;5.312;2022-12-29T09:44:48;11.0;;;2.8;;
34453;SDS011;60061;52.080;5.312;2022-12-29T09:46:37;10.3;;;2.5;;
34453;SDS011;60061;52.080;5.312;2022-12-29T09:50:00;8.81;;;2.4;;
34453;SDS011;60061;52.080;5.312;2022-12-29T09:51:42;6.9;;;2.31;;
34453;SDS011;60061;52.080;5.312;2022-12-29T09:53:24;9.71;;;2.4;;
34453;SDS011;60061;52.080;5.312;2022-12-29T09:55:08;8.71;;;2.31;;
34453;SDS011;60061;52.080;5.312;2022-12-29T09:58:30;11.5;;;3.7;;
34453;SDS011;60061;52.080;5.312;2022-12-29T10:01:53;14.2;;;3.9;;
34453;SDS011;60061;52.080;5.312;2022-12-29T10:03:39;15.2;;;3.7;;
34453;SDS011;60061;52.080;5.312;2022-12-29T10:07:13;11.5;;;4.5;;
34453;SDS011;60061;52.080;5.312;2022-12-29T10:09:01;13.0;;;5.4;;
34453;SDS011;60061;52.080;5.312;2022-12-29T10:10:45;9.81;;;3.4;;
34453;SDS011;60061;52.080;5.312;2022-12-29T10:12:31;10.9;;;2.5;;
34453;SDS011;60061;52.080;5.312;2022-12-29T10:14:30;10.8;;;2.4;;
34453;SDS011;60061;52.080;5.312;2022-12-29T10:16:18;8.0;;;2.21;;
34453;SDS011;60061;52.080;5.312;2022-12-29T10:18:03;7.7;;;2.6;;
34453;SDS011;60061;52.080;5.312;2022-12-29T10:21:57;8.71;;;2.4;;
34453;SDS011;60061;52.080;5.312;2022-12-29T10:23:46;8.9;;;2.8;;
34453;SDS011;60061;52.080;5.312;2022-12-29T10:25:28;8.31;;;2.7;;
34453;SDS011;60061;52.080;5.312;2022-12-29T10:27:11;8.1;;;1.8;;
34453;SDS011;60061;52.080;5.312;2022-12-29T10:28:50;7.0;;;1.9;;
34453;SDS011;60061;52.080;5.312;2022-12-29T10:32:13;7.2;;;2.7;;
34453;SDS011;60061;52.080;5.312;2022-12-29T10:34:10;12.5;;;3.1;;
34453;SDS011;60061;52.080;5.312;2022-12-29T10:35:55;6.8;;;2.6;;
34453;SDS011;60061;52.080;5.312;2022-12-29T10:39:20;8.2;;;2.0;;
34453;SDS011;60061;52.080;5.312;2022-12-29T10:41:05;19.7;;;9.0;;
34453;SDS011;60061;52.080;5.312;2022-12-29T10:44:30;12.7;;;4.8;;
34453;SDS011;60061;52.080;5.312;2022-12-29T10:46:08;8.81;;;2.1;;
34453;SDS011;60061;52.080;5.312;2022-12-29T10:47:53;14.5;;;3.0;;
34453;SDS011;60061;52.080;5.312;2022-12-29T10:51:20;11.7;;;2.8;;
34453;SDS011;60061;52.080;5.312;2022-12-29T10:53:02;8.31;;;4.0;;
34453;SDS011;60061;52.080;5.312;2022-12-29T10:54:42;10.4;;;3.3;;
34453;SDS011;60061;52.080;5.312;2022-12-29T10:56:29;15.7;;;3.0;;
34453;SDS011;60061;52.080;5.312;2022-12-29T10:58:11;15.5;;;6.4;;
34453;SDS011;60061;52.080;5.312;2022-12-29T10:59:50;13.7;;;3.2;;
34453;SDS011;60061;52.080;5.312;2022-12-29T11:03:21;16.3;;;3.5;;
34453;SDS011;60061;52.080;5.312;2022-12-29T11:05:23;12.4;;;6.0;;
34453;SDS011;60061;52.080;5.312;2022-12-29T11:07:08;19.2;;;6.3;;
34453;SDS011;60061;52.080;5.312;2022-12-29T11:08:47;13.2;;;3.9;;
34453;SDS011;60061;52.080;5.312;2022-12-29T11:10:34;17.7;;;6.4;;
34453;SDS011;60061;52.080;5.312;2022-12-29T11:13:57;14.3;;;3.7;;
34453;SDS011;60061;52.080;5.312;2022-12-29T11:15:39;17.41;;;4.5;;
34453;SDS011;60061;52.080;5.312;2022-12-29T11:17:17;14.1;;;4.5;;
34453;SDS011;60061;52.080;5.312;2022-12-29T11:20:31;14.4;;;4.2;;
34453;SDS011;60061;52.080;5.312;2022-12-29T11:22:13;11.7;;;4.3;;
34453;SDS011;60061;52.080;5.312;2022-12-29T11:23:57;19.41;;;4.61;;
34453;SDS011;60061;52.080;5.312;2022-12-29T11:25:34;13.8;;;3.2;;
34453;SDS011;60061;52.080;5.312;2022-12-29T11:30:23;15.8;;;4.61;;
34453;SDS011;60061;52.080;5.312;2022-12-29T11:32:10;20.11;;;4.3;;
34453;SDS011;60061;52.080;5.312;2022-12-29T11:33:48;21.1;;;4.91;;
34453;SDS011;60061;52.080;5.312;2022-12-29T11:37:13;18.11;;;4.8;;
34453;SDS011;60061;52.080;5.312;2022-12-29T11:38:53;17.7;;;5.11;;
34453;SDS011;60061;52.080;5.312;2022-12-29T11:40:32;18.3;;;6.0;;
34453;SDS011;60061;52.080;5.312;2022-12-29T11:42:15;15.8;;;3.9;;
34453;SDS011;60061;52.080;5.312;2022-12-29T11:43:56;16.0;;;3.6;;
34453;SDS011;60061;52.080;5.312;2022-12-29T11:47:13;13.5;;;4.0;;
34453;SDS011;60061;52.080;5.312;2022-12-29T11:49:00;11.0;;;3.5;;
34453;SDS011;60061;52.080;5.312;2022-12-29T11:50:40;18.5;;;3.6;;
34453;SDS011;60061;52.080;5.312;2022-12-29T11:52:20;21.5;;;3.3;;
34453;SDS011;60061;52.080;5.312;2022-12-29T11:55:39;13.0;;;3.0;;
34453;SDS011;60061;52.080;5.312;2022-12-29T11:57:16;14.1;;;2.9;;
34453;SDS011;60061;52.080;5.312;2022-12-29T11:58:56;16.9;;;3.4;;
34453;SDS011;60061;52.080;5.312;2022-12-29T12:00:34;18.0;;;3.5;;
34453;SDS011;60061;52.080;5.312;2022-12-29T12:04:54;15.5;;;4.1;;
34453;SDS011;60061;52.080;5.312;2022-12-29T12:08:34;28.1;;;9.0;;
34453;SDS011;60061;52.080;5.312;2022-12-29T12:10:16;15.9;;;5.6;;
34453;SDS011;60061;52.080;5.312;2022-12-29T12:11:57;14.1;;;4.7;;
34453;SDS011;60061;52.080;5.312;2022-12-29T12:13:39;15.1;;;5.5;;
34453;SDS011;60061;52.080;5.312;2022-12-29T12:15:27;50.4;;;22.5;;
34453;SDS011;60061;52.080;5.312;2022-12-29T12:18:51;19.8;;;5.3;;
34453;SDS011;60061;52.080;5.312;2022-12-29T12:20:36;19.41;;;4.3;;
34453;SDS011;60061;52.080;5.312;2022-12-29T12:22:19;17.91;;;4.3;;
34453;SDS011;60061;52.080;5.312;2022-12-29T12:24:11;17.61;;;3.9;;
34453;SDS011;60061;52.080;5.312;2022-12-29T12:26:14;20.41;;;5.7;;
34453;SDS011;60061;52.080;5.312;2022-12-29T12:27:56;19.3;;;4.0;;
34453;SDS011;60061;52.080;5.312;2022-12-29T12:31:26;18.8;;;4.3;;
34453;SDS011;60061;52.080;5.312;2022-12-29T12:33:22;21.7;;;4.41;;
34453;SDS011;60061;52.080;5.312;2022-12-29T12:35:07;14.6;;;3.3;;
34453;SDS011;60061;52.080;5.312;2022-12-29T12:38:43;17.5;;;4.0;;
34453;SDS011;60061;52.080;5.312;2022-12-29T12:40:34;14.6;;;3.2;;
34453;SDS011;60061;52.080;5.312;2022-12-29T12:44:12;17.0;;;3.8;;
34453;SDS011;60061;52.080;5.312;2022-12-29T12:46:02;10.8;;;3.3;;
34453;SDS011;60061;52.080;5.312;2022-12-29T12:47:57;17.0;;;3.6;;
34453;SDS011;60061;52.080;5.312;2022-12-29T12:50:08;16.61;;;3.6;;
34453;SDS011;60061;52.080;5.312;2022-12-29T12:52:14;17.41;;;3.6;;
34453;SDS011;60061;52.080;5.312;2022-12-29T12:54:08;19.2;;;4.0;;
34453;SDS011;60061;52.080;5.312;2022-12-29T12:56:12;15.4;;;4.0;;
34453;SDS011;60061;52.080;5.312;2022-12-29T13:00:37;11.4;;;3.7;;
34453;SDS011;60061;52.080;5.312;2022-12-29T13:02:30;13.2;;;3.5;;
34453;SDS011;60061;52.080;5.312;2022-12-29T13:04:22;19.2;;;4.41;;
34453;SDS011;60061;52.080;5.312;2022-12-29T13:06:42;16.3;;;4.0;;
34453;SDS011;60061;52.080;5.312;2022-12-29T13:08:37;13.6;;;3.7;;
34453;SDS011;60061;52.080;5.312;2022-12-29T13:10:40;12.8;;;3.8;;
34453;SDS011;60061;52.080;5.312;2022-12-29T13:12:21;13.9;;;3.5;;
34453;SDS011;60061;52.080;5.312;2022-12-29T13:14:16;14.6;;;4.1;;
34453;SDS011;60061;52.080;5.312;2022-12-29T13:16:05;18.11;;;4.8;;